Time;durP1;ratioP1;P1;durP2;ratioP2;P2;SDS_P1;SDS_P2;PMS_P1;PMS_P2;Temp;Humidity;BMP_temperature;BMP_pressure;BME280_temperature;BME280_humidity;BME280_pressure;Samples;Min_cycle;Max_cycle;Signal;HPM_P1;HPM_P2
2023/05/27 00:00:09;;;;;;;10.33;9.27;;;16.70;99.90;;;;;;4995146;28;20257;-58
2023/05/27 00:02:36;;;;;;;12.37;10.20;;;16.60;99.90;;;;;;5010951;28;20222;-58
2023/05/27 00:05:05;;;;;;;11.90;9.87;;;16.50;99.90;;;;;;5002376;28;20247;-58
2023/05/27 00:07:32;;;;;;;12.63;9.47;;;16.40;99.90;;;;;;4988503;28;20204;-58
2023/05/27 00:09:59;;;;;;;18.70;9.37;;;16.50;99.90;;;;;;4990132;28;20292;-58
2023/05/27 00:12:26;;;;;;;10.67;9.80;;;16.50;99.90;;;;;;4994095;28;20200;-58
2023/05/27 00:14:53;;;;;;;10.87;9.07;;;16.50;99.90;;;;;;4990764;28;20207;-58
2023/05/27 00:17:20;;;;;;;10.57;8.60;;;16.40;99.90;;;;;;4984317;28;20252;-58
2023/05/27 00:19:48;;;;;;;9.57;8.53;;;16.30;99.90;;;;;;4981474;28;20287;-58
2023/05/27 00:22:16;;;;;;;9.07;8.23;;;16.30;99.90;;;;;;4982303;28;20200;-58
2023/05/27 00:24:43;;;;;;;11.20;10.07;;;16.20;99.90;;;;;;4981253;28;20693;-58
2023/05/27 00:27:11;;;;;;;10.83;9.57;;;16.20;99.90;;;;;;4993975;28;20294;-58
2023/05/27 00:29:38;;;;;;;10.43;9.33;;;16.20;99.90;;;;;;5006835;28;20740;-58
2023/05/27 00:32:05;;;;;;;11.17;9.37;;;16.20;99.90;;;;;;4996553;28;20630;-58
2023/05/27 00:34:32;;;;;;;12.83;9.93;;;16.20;99.90;;;;;;5002041;28;20199;-59
2023/05/27 00:36:59;;;;;;;9.17;8.43;;;16.10;99.90;;;;;;5010740;28;20260;-57
2023/05/27 00:39:28;;;;;;;9.30;8.47;;;16.10;99.90;;;;;;5002968;28;20227;-58
2023/05/27 00:41:55;;;;;;;12.60;10.33;;;16.00;99.90;;;;;;5012446;28;20203;-59
2023/05/27 00:44:22;;;;;;;10.87;9.80;;;15.90;99.90;;;;;;5007754;28;21455;-58
2023/05/27 00:46:49;;;;;;;11.27;10.07;;;15.90;99.90;;;;;;4995766;28;20262;-58
2023/05/27 00:49:17;;;;;;;11.70;9.40;;;15.90;99.90;;;;;;5014606;28;20207;-58
2023/05/27 00:51:44;;;;;;;11.90;10.70;;;15.80;99.90;;;;;;5014483;28;20203;-58
2023/05/27 00:54:11;;;;;;;11.27;10.30;;;15.70;99.90;;;;;;5010296;28;20669;-58
2023/05/27 00:56:40;;;;;;;11.53;10.47;;;15.70;99.90;;;;;;5001481;28;20668;-59
2023/05/27 00:59:07;;;;;;;11.63;10.43;;;15.60;99.90;;;;;;4989902;28;20208;-58
2023/05/27 01:01:36;;;;;;;12.33;11.13;;;15.50;99.90;;;;;;5002740;28;20208;-58
2023/05/27 01:04:04;;;;;;;12.63;11.43;;;15.50;99.90;;;;;;5004583;28;20289;-58
2023/05/27 01:06:43;;;;;;;10.00;9.20;;;15.50;99.90;;;;;;5005918;28;20291;-58
2023/05/27 01:09:15;;;;;;;12.20;11.00;;;15.40;99.90;;;;;;5008456;28;20204;-58
2023/05/27 01:11:51;;;;;;;11.57;10.37;;;15.40;99.90;;;;;;4998406;28;20273;-58
2023/05/27 01:14:21;;;;;;;11.60;10.20;;;15.40;99.90;;;;;;5000891;28;20258;-58
2023/05/27 01:16:49;;;;;;;10.87;9.73;;;15.40;99.90;;;;;;5002982;28;20255;-58
2023/05/27 01:19:30;;;;;;;11.53;10.47;;;15.40;99.90;;;;;;5013973;28;20203;-58
2023/05/27 01:21:59;;;;;;;12.53;9.90;;;15.30;99.90;;;;;;5010517;28;20214;-58
2023/05/27 01:24:28;;;;;;;11.30;10.23;;;15.30;99.90;;;;;;5005437;28;20731;-58
2023/05/27 01:26:56;;;;;;;14.03;11.20;;;15.30;99.90;;;;;;4995468;28;20299;-58
2023/05/27 01:29:23;;;;;;;12.20;10.97;;;15.20;99.90;;;;;;4993419;28;20222;-57
2023/05/27 01:31:56;;;;;;;13.13;11.73;;;15.20;99.90;;;;;;5002006;28;20239;-58
2023/05/27 01:34:31;;;;;;;13.87;11.07;;;15.10;99.90;;;;;;4993531;28;20266;-58
2023/05/27 01:37:03;;;;;;;13.97;12.27;;;15.10;99.90;;;;;;5003863;28;20258;-58
2023/05/27 01:39:32;;;;;;;12.60;11.50;;;15.10;99.90;;;;;;5001744;28;20675;-58
2023/05/27 01:42:01;;;;;;;12.97;11.70;;;15.00;99.90;;;;;;5001840;28;20580;-58
2023/05/27 01:44:31;;;;;;;12.10;11.00;;;15.00;99.90;;;;;;5003313;28;20203;-58
2023/05/27 01:47:04;;;;;;;15.40;11.40;;;14.90;99.90;;;;;;4998884;28;20216;-58
2023/05/27 01:49:31;;;;;;;15.80;11.83;;;14.90;99.90;;;;;;4998533;28;20286;-58
2023/05/27 01:51:58;;;;;;;11.30;10.27;;;14.90;99.90;;;;;;4993702;28;20199;-58
2023/05/27 01:54:25;;;;;;;12.77;11.47;;;14.90;99.90;;;;;;4998720;28;20203;-58
2023/05/27 01:56:54;;;;;;;15.23;10.97;;;14.80;99.90;;;;;;5005095;28;20219;-57
2023/05/27 01:59:21;;;;;;;13.67;11.93;;;14.80;99.90;;;;;;4990375;28;20204;-58
2023/05/27 02:01:49;;;;;;;11.93;10.73;;;14.80;99.90;;;;;;5009479;28;20203;-58
2023/05/27 02:04:16;;;;;;;12.53;11.27;;;14.70;99.90;;;;;;4993368;28;20204;-58
2023/05/27 02:06:43;;;;;;;14.50;11.97;;;14.70;99.90;;;;;;4993348;28;20224;-58
2023/05/27 02:09:11;;;;;;;13.53;12.20;;;14.70;99.90;;;;;;4993755;28;20258;-58
2023/05/27 02:11:37;;;;;;;12.27;11.03;;;14.60;99.90;;;;;;4992856;28;20204;-58
2023/05/27 02:14:07;;;;;;;11.83;10.63;;;14.60;99.90;;;;;;4994097;28;20200;-58
2023/05/27 02:16:34;;;;;;;11.77;10.60;;;14.60;99.90;;;;;;4999928;28;20313;-58
2023/05/27 02:19:02;;;;;;;13.60;12.30;;;14.50;99.90;;;;;;5012796;28;20203;-58
2023/05/27 02:21:29;;;;;;;11.43;10.53;;;14.50;99.90;;;;;;5013068;28;20614;-57
2023/05/27 02:23:56;;;;;;;13.37;11.50;;;14.50;99.90;;;;;;5008669;28;20235;-58
2023/05/27 02:26:23;;;;;;;13.37;12.07;;;14.50;99.90;;;;;;5000601;28;20220;-58
2023/05/27 02:28:50;;;;;;;14.77;11.20;;;14.50;99.90;;;;;;5000934;28;20207;-58
2023/05/27 02:31:18;;;;;;;11.30;10.00;;;14.40;99.90;;;;;;5000594;28;20199;-58
2023/05/27 02:33:45;;;;;;;13.53;12.10;;;14.40;99.90;;;;;;5003607;28;20662;-58
2023/05/27 02:36:12;;;;;;;12.93;11.53;;;14.40;99.90;;;;;;5008392;28;20235;-58
2023/05/27 02:38:39;;;;;;;11.33;10.30;;;14.40;99.90;;;;;;5000804;28;20292;-58
2023/05/27 02:41:06;;;;;;;13.90;12.50;;;14.40;99.90;;;;;;4998953;28;20258;-58
2023/05/27 02:43:33;;;;;;;12.43;11.20;;;14.40;99.90;;;;;;4999327;28;20270;-57
2023/05/27 02:46:00;;;;;;;14.37;12.87;;;14.40;99.90;;;;;;5000839;28;20223;-57
2023/05/27 02:48:28;;;;;;;14.60;11.77;;;14.30;99.90;;;;;;4992356;28;20666;-58
2023/05/27 02:50:55;;;;;;;12.03;10.87;;;14.30;99.90;;;;;;4999934;28;20226;-57
2023/05/27 02:53:22;;;;;;;15.97;12.83;;;14.30;99.90;;;;;;5006086;28;20199;-57
2023/05/27 02:55:49;;;;;;;14.67;12.53;;;14.40;99.90;;;;;;5011391;28;20224;-58
2023/05/27 02:58:16;;;;;;;13.17;11.87;;;14.30;99.90;;;;;;5004117;28;20250;-58
2023/05/27 03:00:43;;;;;;;13.37;12.00;;;14.30;99.90;;;;;;5003184;28;20203;-58
2023/05/27 03:03:10;;;;;;;14.27;11.47;;;14.30;99.90;;;;;;5001565;28;20208;-58
2023/05/27 03:05:38;;;;;;;15.10;12.63;;;14.30;99.90;;;;;;5011862;28;20663;-58
2023/05/27 03:08:06;;;;;;;13.90;11.43;;;14.30;99.90;;;;;;5011871;28;20627;-58
2023/05/27 03:10:33;;;;;;;14.33;11.60;;;14.30;99.90;;;;;;5012103;28;20238;-57
2023/05/27 03:13:00;;;;;;;15.50;11.50;;;14.40;99.90;;;;;;5011612;28;20241;-58
2023/05/27 03:15:29;;;;;;;12.83;10.63;;;14.30;99.90;;;;;;4994481;28;20270;-58
2023/05/27 03:17:57;;;;;;;11.57;10.47;;;14.30;99.90;;;;;;5001966;28;20226;-58
2023/05/27 03:20:24;;;;;;;10.80;9.70;;;14.30;99.90;;;;;;4999493;28;20523;-58
2023/05/27 03:22:52;;;;;;;10.80;9.70;;;14.20;99.90;;;;;;5009182;28;20575;-57
2023/05/27 03:25:19;;;;;;;12.27;10.87;;;14.20;99.90;;;;;;5011776;28;20305;-58
2023/05/27 03:27:46;;;;;;;11.23;10.13;;;14.20;99.90;;;;;;4994947;28;20254;-58
2023/05/27 03:30:13;;;;;;;11.57;10.40;;;14.10;99.90;;;;;;5027894;22;20865;-54
2023/05/27 03:32:40;;;;;;;11.30;10.13;;;14.10;99.90;;;;;;5079077;28;20201;-52
2023/05/27 03:35:07;;;;;;;11.97;10.83;;;14.10;99.90;;;;;;5071854;28;20189;-52
2023/05/27 03:37:34;;;;;;;10.30;9.30;;;14.00;99.90;;;;;;5073423;28;20309;-52
2023/05/27 03:40:03;;;;;;;15.03;10.30;;;14.00;99.90;;;;;;5060557;28;20190;-52
2023/05/27 03:42:30;;;;;;;13.47;10.50;;;14.00;99.90;;;;;;5057312;28;20214;-52
2023/05/27 03:44:57;;;;;;;10.43;9.40;;;14.00;99.90;;;;;;5050938;28;20224;-52
2023/05/27 03:47:24;;;;;;;13.73;10.77;;;13.90;99.90;;;;;;5064755;28;20200;-52
2023/05/27 03:49:51;;;;;;;13.67;10.43;;;13.80;99.90;;;;;;5071642;28;20255;-52
2023/05/27 03:52:18;;;;;;;11.83;10.63;;;13.80;99.90;;;;;;5069040;28;20674;-52
2023/05/27 03:54:45;;;;;;;14.57;11.97;;;13.80;99.90;;;;;;5067758;28;20197;-52
2023/05/27 03:57:14;;;;;;;17.03;11.70;;;13.80;99.90;;;;;;5055770;28;20245;-53
2023/05/27 03:59:40;;;;;;;13.27;11.87;;;13.80;99.90;;;;;;5060928;28;20213;-52
2023/05/27 04:02:07;;;;;;;13.03;10.83;;;13.80;99.90;;;;;;5063076;28;20592;-52
2023/05/27 04:04:34;;;;;;;11.43;10.40;;;13.80;99.90;;;;;;5071551;28;20204;-52
2023/05/27 04:07:04;;;;;;;12.90;11.70;;;13.80;99.90;;;;;;5073248;28;20242;-52
2023/05/27 04:09:31;;;;;;;11.87;10.80;;;13.90;99.90;;;;;;5067360;28;20672;-52
2023/05/27 04:11:58;;;;;;;12.27;11.03;;;14.00;99.90;;;;;;5062827;28;20217;-52
2023/05/27 04:14:27;;;;;;;14.53;10.40;;;14.10;99.90;;;;;;5075442;28;20270;-52
2023/05/27 04:16:54;;;;;;;11.57;10.30;;;14.20;99.90;;;;;;5065082;28;20741;-52
2023/05/27 04:19:22;;;;;;;13.27;11.97;;;14.30;99.90;;;;;;5073586;28;20575;-52
2023/05/27 04:21:49;;;;;;;10.93;9.87;;;14.40;99.90;;;;;;5074111;28;20627;-52
2023/05/27 04:24:16;;;;;;;15.30;11.40;;;14.40;99.90;;;;;;5068062;28;20197;-52
2023/05/27 04:26:43;;;;;;;11.37;10.20;;;14.40;99.90;;;;;;5070762;28;20205;-52
2023/05/27 04:29:11;;;;;;;13.47;10.13;;;14.50;99.90;;;;;;5071987;28;20193;-52
2023/05/27 04:31:40;;;;;;;10.73;9.00;;;14.60;99.90;;;;;;5064814;28;20232;-52
2023/05/27 04:34:07;;;;;;;11.47;10.37;;;14.70;99.90;;;;;;5067201;28;20258;-52
2023/05/27 04:36:34;;;;;;;13.70;10.47;;;14.90;99.90;;;;;;5062261;28;20266;-52
2023/05/27 04:39:02;;;;;;;9.83;9.00;;;15.00;99.90;;;;;;5065030;28;20815;-52
2023/05/27 04:41:29;;;;;;;10.63;9.57;;;15.00;99.90;;;;;;5040543;28;20218;-52
2023/05/27 04:43:58;;;;;;;15.30;11.17;;;15.20;99.90;;;;;;5054719;28;20209;-52
2023/05/27 04:46:26;;;;;;;11.13;9.93;;;15.30;99.90;;;;;;5060106;28;20225;-52
2023/05/27 04:48:55;;;;;;;10.60;9.60;;;15.30;99.90;;;;;;5045997;28;20570;-52
2023/05/27 04:51:22;;;;;;;12.53;10.90;;;15.40;99.90;;;;;;5054822;28;20245;-52
2023/05/27 04:53:50;;;;;;;10.63;9.73;;;15.40;99.90;;;;;;5054507;28;20202;-52
2023/05/27 04:56:17;;;;;;;12.83;10.97;;;15.40;99.90;;;;;;5041487;28;20641;-52
2023/05/27 04:58:46;;;;;;;10.97;9.87;;;15.60;99.90;;;;;;5063016;28;20218;-52
2023/05/27 05:01:17;;;;;;;11.00;9.90;;;15.80;99.90;;;;;;5068716;28;20226;-52
2023/05/27 05:03:52;;;;;;;11.63;10.53;;;16.10;99.90;;;;;;5061351;28;20237;-52
2023/05/27 05:06:22;;;;;;;11.30;9.83;;;16.40;99.90;;;;;;5049300;28;20193;-52
2023/05/27 05:08:49;;;;;;;13.07;9.37;;;16.70;99.90;;;;;;5065376;28;20200;-52
2023/05/27 05:11:16;;;;;;;10.23;9.20;;;17.10;99.90;;;;;;5074212;28;20217;-52
2023/05/27 05:13:43;;;;;;;10.97;9.50;;;17.40;99.90;;;;;;5070122;28;20235;-52
2023/05/27 05:16:10;;;;;;;12.43;10.03;;;17.80;99.90;;;;;;5062123;28;20205;-52
2023/05/27 05:18:37;;;;;;;11.57;9.37;;;18.20;99.90;;;;;;5048694;28;20249;-52
2023/05/27 05:21:04;;;;;;;15.00;9.77;;;18.70;99.90;;;;;;5058606;28;20217;-52
2023/05/27 05:23:32;;;;;;;10.70;8.87;;;18.90;99.90;;;;;;5050822;28;20252;-52
2023/05/27 05:26:06;;;;;;;12.77;8.67;;;19.40;99.90;;;;;;5053711;28;20256;-52
2023/05/27 05:28:33;;;;;;;10.37;8.20;;;19.60;99.90;;;;;;5034358;28;20199;-52
2023/05/27 05:31:00;;;;;;;12.83;9.10;;;20.20;99.90;;;;;;5033883;28;20240;-52
2023/05/27 05:33:27;;;;;;;10.27;9.27;;;20.30;99.90;;;;;;5047036;28;20212;-52
2023/05/27 05:35:54;;;;;;;13.63;8.87;;;20.30;99.90;;;;;;5053857;28;20198;-52
2023/05/27 05:38:22;;;;;;;9.77;8.63;;;20.60;99.90;;;;;;5047372;28;20699;-52
2023/05/27 05:40:52;;;;;;;11.27;8.00;;;20.80;99.90;;;;;;5061684;28;20308;-52
2023/05/27 05:43:20;;;;;;;10.57;8.10;;;21.40;99.90;;;;;;5061112;28;20194;-53
2023/05/27 05:45:47;;;;;;;12.97;8.20;;;21.70;99.90;;;;;;5061163;28;20567;-52
2023/05/27 05:48:14;;;;;;;9.27;8.47;;;22.30;99.90;;;;;;5059021;28;20610;-52
2023/05/27 05:50:42;;;;;;;12.03;8.00;;;22.50;99.90;;;;;;5056623;28;20232;-52
2023/05/27 05:53:10;;;;;;;9.80;8.57;;;22.40;99.90;;;;;;5042737;28;20199;-53
2023/05/27 05:55:37;;;;;;;8.93;8.00;;;22.30;99.90;;;;;;5049234;28;20194;-52
2023/05/27 05:58:05;;;;;;;10.43;8.60;;;22.00;99.90;;;;;;5047109;28;20311;-52
2023/05/27 06:00:33;;;;;;;15.57;8.37;;;21.40;99.90;;;;;;5051759;28;20649;-51
2023/05/27 06:03:00;;;;;;;10.40;9.13;;;21.70;99.90;;;;;;5053278;28;20236;-52
2023/05/27 06:05:27;;;;;;;10.63;7.17;;;21.90;99.90;;;;;;5050633;28;20193;-52
2023/05/27 06:07:54;;;;;;;10.33;8.30;;;22.40;99.90;;;;;;5049495;28;20201;-52
2023/05/27 06:10:21;;;;;;;11.57;8.90;;;22.40;99.90;;;;;;5052813;28;20694;-52
2023/05/27 06:12:48;;;;;;;11.03;8.50;;;22.50;99.90;;;;;;5048259;28;20725;-53
2023/05/27 06:15:16;;;;;;;9.52;8.45;;;22.80;99.90;;;;;;5052847;28;20501;-53
2023/05/27 06:17:45;;;;;;;11.80;10.10;;;23.40;99.90;;;;;;5060097;28;20630;-53
2023/05/27 06:20:12;;;;;;;8.40;7.70;;;24.00;99.90;;;;;;5072923;28;20239;-52
2023/05/27 06:22:39;;;;;;;9.07;8.27;;;24.30;99.90;;;;;;5052495;28;20242;-53
2023/05/27 06:25:07;;;;;;;8.90;8.00;;;24.10;99.90;;;;;;5050023;28;20194;-53
2023/05/27 06:27:34;;;;;;;9.40;8.53;;;24.40;99.90;;;;;;5045681;28;20288;-53
2023/05/27 06:30:01;;;;;;;9.33;8.43;;;24.50;99.90;;;;;;5060308;28;20197;-63
2023/05/27 06:32:30;;;;;;;9.90;8.87;;;24.30;99.90;;;;;;5066820;28;20209;-66
2023/05/27 06:34:57;;;;;;;10.53;9.20;;;24.10;99.90;;;;;;5063087;28;20614;-67
2023/05/27 06:37:24;;;;;;;9.10;8.27;;;24.40;99.90;;;;;;5057465;28;20658;-66
2023/05/27 06:39:51;;;;;;;10.73;9.63;;;24.40;99.90;;;;;;5059918;28;20255;-61
2023/05/27 06:42:19;;;;;;;11.23;8.77;;;23.70;99.90;;;;;;5061053;28;20258;-61
2023/05/27 06:44:47;;;;;;;9.77;8.77;;;24.30;99.90;;;;;;5062771;28;20213;-62
2023/05/27 06:47:16;;;;;;;9.60;8.53;;;24.20;99.90;;;;;;5055870;28;20252;-62
2023/05/27 06:49:45;;;;;;;8.10;7.37;;;24.80;99.90;;;;;;5061403;28;20577;-62
2023/05/27 06:52:12;;;;;;;10.07;8.97;;;24.90;99.90;;;;;;5062459;28;20221;-62
2023/05/27 06:54:39;;;;;;;11.20;9.10;;;25.50;99.90;;;;;;5053497;28;20255;-60
2023/05/27 06:57:08;;;;;;;10.20;9.20;;;25.20;99.90;;;;;;5052432;28;20206;-62
2023/05/27 06:59:35;;;;;;;11.40;8.53;;;24.30;99.90;;;;;;5050165;28;20222;-64
2023/05/27 07:02:06;;;;;;;11.57;10.50;;;24.30;99.90;;;;;;5065900;28;20611;-62
2023/05/27 07:04:33;;;;;;;10.47;9.43;;;24.70;99.90;;;;;;5033253;28;20190;-62
2023/05/27 07:07:05;;;;;;;11.40;10.37;;;25.00;99.90;;;;;;5051543;28;20548;-62
2023/05/27 07:09:32;;;;;;;10.73;9.57;;;24.60;99.90;;;;;;5056009;28;20219;-61
2023/05/27 07:12:01;;;;;;;10.17;9.27;;;24.60;99.90;;;;;;5070580;28;20217;-62
2023/05/27 07:14:28;;;;;;;10.00;9.00;;;25.30;99.90;;;;;;5057074;28;20206;-62
2023/05/27 07:16:55;;;;;;;11.83;9.37;;;25.80;99.90;;;;;;5062872;28;20721;-53
2023/05/27 07:19:22;;;;;;;10.07;9.07;;;26.40;99.90;;;;;;5049719;28;20214;-53
2023/05/27 07:21:49;;;;;;;10.33;9.33;;;26.70;99.90;;;;;;5069035;28;20221;-52
2023/05/27 07:24:18;;;;;;;11.57;9.93;;;27.20;99.90;;;;;;5070269;28;20204;-52
2023/05/27 07:26:45;;;;;;;9.73;8.90;;;27.60;99.90;;;;;;5071503;28;20250;-52
2023/05/27 07:29:12;;;;;;;12.03;10.83;;;27.20;99.90;;;;;;5071909;28;20250;-52
2023/05/27 07:31:39;;;;;;;10.50;9.50;;;27.60;99.90;;;;;;5071371;28;20224;-52
2023/05/27 07:34:06;;;;;;;9.97;9.13;;;27.90;99.90;;;;;;5064402;28;20201;-52
2023/05/27 07:36:33;;;;;;;9.83;8.83;;;27.40;99.90;;;;;;5071747;28;20255;-52
2023/05/27 07:39:00;;;;;;;9.07;8.23;;;27.90;99.90;;;;;;5071714;28;20217;-52
2023/05/27 07:41:29;;;;;;;9.15;8.35;;;28.20;99.90;;;;;;5071143;28;20256;-52
2023/05/27 07:43:56;;;;;;;9.95;8.38;;;28.80;99.90;;;;;;5071713;28;20197;-52
2023/05/27 07:46:23;;;;;;;9.07;8.27;;;28.00;99.90;;;;;;5071567;28;20243;-52
2023/05/27 07:48:50;;;;;;;9.60;8.80;;;28.20;99.90;;;;;;5071857;28;20205;-52
2023/05/27 07:51:17;;;;;;;10.55;9.60;;;27.90;99.90;;;;;;5063249;28;20232;-52
2023/05/27 07:53:44;;;;;;;11.73;9.75;;;27.80;99.90;;;;;;5071282;28;20247;-52
2023/05/27 07:56:11;;;;;;;10.43;9.10;;;27.70;99.90;;;;;;5071766;28;20209;-52
2023/05/27 07:58:39;;;;;;;11.88;10.68;;;27.90;99.90;;;;;;5071729;28;20220;-51
2023/05/27 08:01:06;;;;;;;13.00;10.45;;;26.80;99.90;;;;;;5071643;28;20220;-52
2023/05/27 08:03:33;;;;;;;13.03;11.10;;;26.40;99.90;;;;;;5071427;28;20200;-51
2023/05/27 08:06:00;;;;;;;10.57;9.40;;;26.20;99.90;;;;;;5071565;28;20266;-52
2023/05/27 08:08:27;;;;;;;11.03;10.13;;;26.70;99.90;;;;;;5061155;28;20200;-51
2023/05/27 08:10:54;;;;;;;11.67;10.53;;;26.90;99.90;;;;;;5071546;28;20225;-52
2023/05/27 08:13:21;;;;;;;11.63;10.27;;;26.50;99.90;;;;;;5071457;28;20648;-52
2023/05/27 08:15:49;;;;;;;11.17;10.13;;;26.90;99.90;;;;;;5071553;28;20205;-51
2023/05/27 08:18:16;;;;;;;12.23;10.13;;;26.40;99.90;;;;;;5071391;28;20278;-52
2023/05/27 08:20:43;;;;;;;12.00;10.97;;;25.80;99.90;;;;;;5071125;28;20233;-52
2023/05/27 08:23:11;;;;;;;11.20;10.10;;;26.20;99.90;;;;;;5071027;28;20740;-52
2023/05/27 08:25:38;;;;;;;11.53;10.30;;;26.00;99.90;;;;;;5067215;28;20674;-52
2023/05/27 08:28:05;;;;;;;11.63;10.53;;;26.30;99.90;;;;;;5071201;28;20251;-52
2023/05/27 08:30:33;;;;;;;11.27;9.90;;;26.90;99.90;;;;;;5071208;28;20290;-52
2023/05/27 08:33:01;;;;;;;17.43;11.43;;;26.00;99.90;;;;;;5070833;28;20198;-52
2023/05/27 08:35:28;;;;;;;10.90;9.90;;;26.70;99.90;;;;;;5071175;28;20255;-52
2023/05/27 08:37:55;;;;;;;12.33;11.10;;;27.20;99.90;;;;;;5071317;28;20205;-52
2023/05/27 08:40:22;;;;;;;11.23;10.23;;;27.50;99.90;;;;;;5066800;28;20221;-52
2023/05/27 08:42:49;;;;;;;10.57;9.47;;;26.90;99.90;;;;;;5068379;28;20237;-52
2023/05/27 08:45:16;;;;;;;13.77;10.00;;;26.90;99.90;;;;;;5071156;28;20197;-52
2023/05/27 08:47:43;;;;;;;12.83;11.33;;;27.30;99.90;;;;;;5071130;28;20209;-52
2023/05/27 08:50:12;;;;;;;12.57;11.37;;;27.20;99.90;;;;;;5071059;28;20213;-52
2023/05/27 08:52:46;;;;;;;12.87;11.00;;;27.10;99.90;;;;;;5071678;28;20204;-52
2023/05/27 08:55:16;;;;;;;12.47;11.27;;;26.80;99.90;;;;;;5074880;28;20622;-52
2023/05/27 08:57:49;;;;;;;11.43;10.30;;;26.80;99.90;;;;;;5067818;28;20202;-52
2023/05/27 09:00:16;;;;;;;13.50;12.07;;;26.90;99.90;;;;;;5066852;28;20225;-52
2023/05/27 09:02:43;;;;;;;12.23;11.03;;;26.50;99.90;;;;;;5074254;28;20258;-52
2023/05/27 09:05:12;;;;;;;12.37;11.27;;;27.30;99.90;;;;;;5074661;28;20250;-52
2023/05/27 09:07:39;;;;;;;12.33;11.13;;;27.20;99.90;;;;;;5074240;28;20201;-52
2023/05/27 09:10:07;;;;;;;13.03;11.40;;;27.60;99.90;;;;;;5074270;28;20615;-52
2023/05/27 09:12:35;;;;;;;12.67;11.30;;;28.00;99.90;;;;;;5074187;28;20609;-52
2023/05/27 09:15:03;;;;;;;10.23;9.33;;;27.40;99.90;;;;;;5062677;28;20213;-52
2023/05/27 09:17:31;;;;;;;12.43;11.13;;;27.70;99.90;;;;;;5074242;28;20671;-52
2023/05/27 09:19:58;;;;;;;12.13;10.93;;;27.10;99.90;;;;;;5074285;28;20280;-52
2023/05/27 09:22:29;;;;;;;12.93;11.07;;;27.30;99.90;;;;;;5073980;28;20205;-52
2023/05/27 09:24:57;;;;;;;11.50;10.43;;;27.70;99.90;;;;;;5074300;28;20627;-52
2023/05/27 09:27:28;;;;;;;15.30;12.13;;;27.90;99.90;;;;;;5074106;28;20228;-52
2023/05/27 09:29:55;;;;;;;12.10;10.17;;;28.20;99.90;;;;;;5069779;28;20238;-52
2023/05/27 09:32:26;;;;;;;11.23;10.07;;;28.40;99.90;;;;;;5067153;22;20253;-58
2023/05/27 09:34:54;;;;;;;11.40;10.43;;;28.80;99.90;;;;;;5031324;28;20235;-58
2023/05/27 09:37:21;;;;;;;11.77;10.88;;;29.40;99.90;;;;;;5040065;28;20285;-57
2023/05/27 09:39:53;;;;;;;10.38;9.48;;;28.20;99.90;;;;;;5036139;28;20222;-58
2023/05/27 09:42:20;;;;;;;11.77;10.63;;;28.80;99.90;;;;;;5045725;28;20292;-57
2023/05/27 09:44:49;;;;;;;12.38;10.80;;;29.20;99.90;;;;;;5016347;28;20199;-57
2023/05/27 09:47:22;;;;;;;13.95;12.32;;;29.50;99.90;;;;;;5027218;28;20203;-58
2023/05/27 09:49:53;;;;;;;22.30;11.82;;;29.50;99.90;;;;;;5043390;28;20206;-58
2023/05/27 09:52:21;;;;;;;12.30;11.20;;;29.40;99.90;;;;;;5047471;28;20708;-57
2023/05/27 09:54:52;;;;;;;13.45;12.15;;;29.00;99.90;;;;;;5023988;28;20281;-58
2023/05/27 09:57:20;;;;;;;12.40;11.13;;;29.20;99.90;;;;;;5034422;28;20201;-58
2023/05/27 09:59:48;;;;;;;14.93;13.52;;;29.30;99.90;;;;;;5051277;28;20506;-69
2023/05/27 10:02:19;;;;;;;12.65;11.35;;;28.60;99.90;;;;;;5053182;28;20727;-71
2023/05/27 10:04:49;;;;;;;11.40;10.43;;;28.90;99.90;;;;;;5024705;28;20345;-72
2023/05/27 10:07:20;;;;;;;13.05;11.77;;;29.30;99.90;;;;;;5045303;28;20236;-69
2023/05/27 10:09:50;;;;;;;12.75;11.25;;;29.60;99.90;;;;;;5032552;28;20198;-70
2023/05/27 10:12:18;;;;;;;11.23;9.85;;;30.00;99.90;;;;;;5048310;28;20715;-69
2023/05/27 10:14:46;;;;;;;12.60;11.45;;;29.70;99.90;;;;;;5032754;28;20206;-69
2023/05/27 10:17:14;;;;;;;11.43;10.05;;;29.60;99.90;;;;;;5019193;28;20203;-67
2023/05/27 10:19:57;;;;;;;11.70;10.60;;;30.00;99.90;;;;;;5027491;28;20222;-66
2023/05/27 10:22:24;;;;;;;11.32;10.23;;;29.70;99.90;;;;;;5040456;28;20218;-70
2023/05/27 10:24:53;;;;;;;11.07;10.05;;;29.10;99.90;;;;;;5052307;28;20567;-66
2023/05/27 10:27:22;;;;;;;12.18;10.85;;;29.80;99.90;;;;;;5038343;28;20202;-66
2023/05/27 10:29:59;;;;;;;10.40;9.48;;;30.20;99.90;;;;;;5043959;28;20206;-66
2023/05/27 10:32:27;;;;;;;9.52;8.63;;;29.60;99.90;;;;;;5037575;28;20229;-65
2023/05/27 10:34:55;;;;;;;11.27;10.13;;;29.70;99.90;;;;;;5042274;28;20209;-65
2023/05/27 10:37:24;;;;;;;14.48;10.63;;;30.00;98.90;;;;;;5032685;28;20221;-66
2023/05/27 10:39:59;;;;;;;12.45;10.68;;;29.30;99.90;;;;;;5049216;28;20232;-67
2023/05/27 10:42:27;;;;;;;12.23;11.10;;;29.30;99.90;;;;;;5038012;28;20225;-68
2023/05/27 10:45:07;;;;;;;12.20;8.73;;;28.70;99.90;;;;;;5042358;28;20209;-68
2023/05/27 10:47:37;;;;;;;8.65;7.85;;;29.20;99.90;;;;;;5025965;28;20570;-71
2023/05/27 10:50:14;;;;;;;10.02;9.23;;;29.80;99.50;;;;;;5030538;28;20625;-64
2023/05/27 10:52:42;;;;;;;8.88;8.18;;;29.70;98.20;;;;;;5025768;28;20314;-69
2023/05/27 10:55:11;;;;;;;9.82;8.57;;;29.50;99.90;;;;;;5037778;28;20722;-68
2023/05/27 10:57:38;;;;;;;11.23;9.05;;;29.10;99.90;;;;;;5039217;28;20203;-69
2023/05/27 11:00:08;;;;;;;10.45;9.55;;;28.80;99.90;;;;;;5039675;28;20226;-64
2023/05/27 11:02:39;;;;;;;9.13;8.35;;;28.40;98.70;;;;;;5045013;28;20305;-65
2023/05/27 11:05:11;;;;;;;10.27;9.25;;;28.30;99.40;;;;;;5035163;28;20288;-66
2023/05/27 11:07:39;;;;;;;10.05;9.07;;;28.30;99.90;;;;;;5048372;28;20285;-67
2023/05/27 11:10:08;;;;;;;10.70;8.70;;;28.50;99.90;;;;;;5051628;28;20209;-67
2023/05/27 11:12:39;;;;;;;10.05;9.00;;;28.60;99.90;;;;;;5048754;28;20225;-66
2023/05/27 11:15:08;;;;;;;11.50;10.18;;;28.20;99.90;;;;;;5044594;28;20265;-73
2023/05/27 11:17:35;;;;;;;10.50;9.52;;;27.30;99.90;;;;;;5038068;28;20684;-70
2023/05/27 11:20:05;;;;;;;10.68;9.52;;;26.90;99.90;;;;;;5033977;28;20412;-68
2023/05/27 11:22:34;;;;;;;9.53;8.57;;;26.40;99.90;;;;;;5046022;28;20312;-73
2023/05/27 11:25:02;;;;;;;9.87;8.93;;;26.10;99.90;;;;;;5051193;28;20201;-73
2023/05/27 11:27:40;;;;;;;8.80;8.00;;;25.90;99.90;;;;;;5039679;28;20518;-73
2023/05/27 11:30:12;;;;;;;10.40;8.30;;;26.20;99.90;;;;;;5033971;28;20592;-74
2023/05/27 11:32:40;;;;;;;15.70;9.33;;;26.20;99.90;;;;;;5048228;28;20225;-78
2023/05/27 11:35:14;;;;;;;10.20;9.10;;;26.40;99.90;;;;;;5042061;28;20252;-74
2023/05/27 11:37:41;;;;;;;9.10;8.40;;;26.40;99.90;;;;;;5044001;28;20264;-72
2023/05/27 11:40:13;;;;;;;8.80;8.03;;;26.40;99.90;;;;;;5030323;28;20276;-72
2023/05/27 11:42:46;;;;;;;8.68;7.75;;;26.60;99.90;;;;;;5046887;28;20228;-70
2023/05/27 11:45:17;;;;;;;7.87;7.27;;;26.60;99.90;;;;;;5019626;28;20197;-59
2023/05/27 11:47:46;;;;;;;8.37;7.80;;;26.50;99.90;;;;;;5026868;28;21925;-58
2023/05/27 11:50:16;;;;;;;9.00;8.07;;;26.40;99.90;;;;;;5029910;28;20198;-59
2023/05/27 11:52:53;;;;;;;8.63;7.57;;;26.00;99.90;;;;;;5045153;28;20296;-60
2023/05/27 11:55:20;;;;;;;8.10;7.40;;;26.00;99.90;;;;;;5036633;28;20284;-59
2023/05/27 11:57:50;;;;;;;9.13;8.33;;;26.00;99.90;;;;;;5050517;28;20737;-59
2023/05/27 12:00:19;;;;;;;10.03;9.00;;;25.80;99.90;;;;;;5050689;28;20222;-59
2023/05/27 12:02:46;;;;;;;7.67;7.00;;;25.50;99.90;;;;;;5040349;28;20623;-70
2023/05/27 12:05:13;;;;;;;9.03;8.30;;;25.60;99.90;;;;;;5048669;28;20283;-69
2023/05/27 12:07:40;;;;;;;8.93;8.03;;;25.80;99.90;;;;;;5037321;28;20252;-70
2023/05/27 12:10:09;;;;;;;8.33;7.63;;;25.60;99.90;;;;;;5035736;28;20313;-59
2023/05/27 12:12:37;;;;;;;8.57;7.57;;;25.50;99.90;;;;;;5036444;28;20654;-70
2023/05/27 12:15:07;;;;;;;8.47;7.47;;;25.30;99.90;;;;;;5045263;28;20625;-69
2023/05/27 12:17:34;;;;;;;8.13;7.40;;;25.00;99.90;;;;;;5047156;28;20206;-70
2023/05/27 12:20:01;;;;;;;11.57;7.63;;;25.20;99.90;;;;;;5044094;28;20214;-60
2023/05/27 12:22:28;;;;;;;13.13;8.10;;;25.30;99.90;;;;;;5045539;28;20706;-60
2023/05/27 12:24:55;;;;;;;7.90;7.13;;;25.50;99.90;;;;;;5034531;28;20206;-61
2023/05/27 12:27:22;;;;;;;8.40;7.67;;;25.60;99.90;;;;;;5037738;28;20202;-60
2023/05/27 12:29:49;;;;;;;9.17;8.23;;;25.60;99.90;;;;;;5044603;28;20268;-60
2023/05/27 12:32:17;;;;;;;7.87;7.37;;;25.60;99.90;;;;;;5054125;28;20236;-60
2023/05/27 12:34:45;;;;;;;7.50;6.80;;;25.70;99.90;;;;;;5049500;28;20216;-61
2023/05/27 12:37:12;;;;;;;12.67;8.90;;;25.70;99.90;;;;;;5049459;28;20682;-61